createdAt,value
2023-05-14T00:01:56.951Z,97970.98
2023-05-14T00:04:28.134Z,97969.83
2023-05-14T00:06:59.913Z,97966.06
2023-05-14T00:09:31.317Z,97965.54
2023-05-14T00:12:02.334Z,97962.40
2023-05-14T00:14:33.503Z,97959.01
2023-05-14T00:17:04.607Z,97958.55
2023-05-14T00:19:35.651Z,97957.96
2023-05-14T00:22:07.165Z,97957.46
2023-05-14T00:24:38.739Z,97954.41
2023-05-14T00:27:10.041Z,97953.77
2023-05-14T00:29:41.256Z,97950.70
2023-05-14T00:32:12.548Z,97948.75
2023-05-14T00:34:43.742Z,97944.10
2023-05-14T00:37:13.084Z,97944.99
2023-05-14T00:39:42.780Z,97944.34
2023-05-14T00:42:13.939Z,97946.67
2023-05-14T00:44:44.917Z,97948.16
2023-05-14T00:47:14.692Z,97946.48
2023-05-14T00:49:44.251Z,97948.45
2023-05-14T00:52:16.530Z,97945.91
2023-05-14T00:54:49.235Z,97947.97
2023-05-14T00:57:21.706Z,97947.45
2023-05-14T00:59:53.102Z,97948.17
2023-05-14T01:02:24.531Z,97951.05
2023-05-14T01:04:56.034Z,97951.15
2023-05-14T01:07:31.968Z,97950.34
2023-05-14T01:10:07.570Z,97950.14
2023-05-14T01:12:47.313Z,97951.16
2023-05-14T01:15:23.067Z,97953.33
2023-05-14T01:17:59.771Z,97954.04
2023-05-14T01:20:30.981Z,97953.21
2023-05-14T01:23:02.112Z,97946.84
2023-05-14T01:25:33.869Z,97948.83
2023-05-14T01:28:13.041Z,97944.55
2023-05-14T01:30:50.650Z,97944.83
2023-05-14T01:33:23.146Z,97947.11
2023-05-14T01:35:56.014Z,97945.67
2023-05-14T01:38:30.780Z,97943.19
2023-05-14T01:41:02.576Z,97941.33
2023-05-14T01:43:34.570Z,97942.54
2023-05-14T01:46:05.964Z,97942.39
2023-05-14T01:48:35.281Z,97943.30
2023-05-14T01:51:06.659Z,97940.30
2023-05-14T01:53:37.671Z,97940.85
2023-05-14T01:56:09.131Z,97941.00
2023-05-14T01:58:40.194Z,97943.13
2023-05-14T02:01:11.411Z,97939.70
2023-05-14T02:03:42.562Z,97936.51
2023-05-14T02:06:11.992Z,97935.54
2023-05-14T02:08:42.799Z,97933.96
2023-05-14T02:11:14.031Z,97933.62
2023-05-14T02:13:45.046Z,97931.23
2023-05-14T02:16:16.118Z,97930.11
2023-05-14T02:18:47.170Z,97929.25
2023-05-14T02:21:18.159Z,97930.60
2023-05-14T02:23:50.238Z,97927.11
2023-05-14T02:26:21.526Z,97922.55
2023-05-14T02:28:52.554Z,97921.51
2023-05-14T02:31:23.765Z,97922.97
2023-05-14T02:33:55.892Z,97922.09
2023-05-14T02:36:27.207Z,97920.91
2023-05-14T02:38:59.831Z,97922.55
2023-05-14T02:41:30.935Z,97919.52
2023-05-14T02:44:02.006Z,97919.44
2023-05-14T02:46:33.797Z,97921.11
2023-05-14T02:49:05.331Z,97919.27
2023-05-14T02:51:36.564Z,97919.75
2023-05-14T02:54:08.144Z,97919.46
2023-05-14T02:56:39.089Z,97917.00
2023-05-14T02:59:08.445Z,97916.45
2023-05-14T03:01:40.118Z,97920.32
2023-05-14T03:04:11.544Z,97915.27
2023-05-14T03:06:40.969Z,97914.70
2023-05-14T03:09:12.002Z,97911.90
2023-05-14T03:11:43.085Z,97907.81
2023-05-14T03:14:14.185Z,97907.02
2023-05-14T03:16:46.200Z,97909.88
2023-05-14T03:19:17.402Z,97909.92
2023-05-14T03:21:50.090Z,97904.94
2023-05-14T03:24:21.057Z,97904.42
2023-05-14T03:26:51.891Z,97906.16
2023-05-14T03:29:21.478Z,97909.41
2023-05-14T03:31:52.312Z,97907.67
2023-05-14T03:34:23.347Z,97906.37
2023-05-14T03:36:52.834Z,97903.68
2023-05-14T03:39:23.820Z,97905.14
2023-05-14T03:41:57.007Z,97902.55
2023-05-14T03:44:28.080Z,97898.54
2023-05-14T03:46:57.571Z,97900.58
2023-05-14T03:49:28.709Z,97905.41
2023-05-14T03:51:59.758Z,97902.94
2023-05-14T03:54:29.223Z,97902.29
2023-05-14T03:57:00.081Z,97904.01
2023-05-14T03:59:29.579Z,97904.06
2023-05-14T04:02:00.640Z,97907.02
2023-05-14T04:04:31.829Z,97906.51
2023-05-14T04:07:02.840Z,97905.40
2023-05-14T04:09:34.527Z,97900.64
2023-05-14T04:12:06.136Z,97894.85
2023-05-14T04:14:37.308Z,97895.40
2023-05-14T04:17:08.484Z,97898.26
2023-05-14T04:19:40.619Z,97893.61
2023-05-14T04:22:11.556Z,97893.08
2023-05-14T04:24:42.655Z,97887.00
2023-05-14T04:27:16.116Z,97885.33
2023-05-14T04:29:47.342Z,97883.69
2023-05-14T04:32:18.796Z,97886.69
2023-05-14T04:34:50.046Z,97885.35
2023-05-14T04:37:21.146Z,97885.57
2023-05-14T04:39:52.237Z,97882.45
2023-05-14T04:42:21.633Z,97880.54
2023-05-14T04:44:52.625Z,97883.39
2023-05-14T04:47:23.668Z,97880.28
2023-05-14T04:49:53.107Z,97875.27
2023-05-14T04:52:23.903Z,97876.04
2023-05-14T04:54:53.487Z,97879.62
2023-05-14T04:57:24.357Z,97876.76
2023-05-14T04:59:55.416Z,97875.48
2023-05-14T05:02:24.755Z,97873.80
2023-05-14T05:04:55.794Z,97874.64
2023-05-14T05:07:26.941Z,97873.06
2023-05-14T05:09:56.295Z,97873.98
2023-05-14T05:12:30.060Z,97868.90
2023-05-14T05:15:01.008Z,97864.53
2023-05-14T05:17:32.707Z,97864.18
2023-05-14T05:20:05.709Z,97859.60
2023-05-14T05:22:36.762Z,97856.86
2023-05-14T05:25:09.211Z,97856.05
2023-05-14T05:27:40.222Z,97856.46
2023-05-14T05:30:10.589Z,97854.30
2023-05-14T05:32:41.593Z,97853.59
2023-05-14T05:35:13.130Z,97853.01
2023-05-14T05:37:45.286Z,97848.32
2023-05-14T05:40:17.369Z,97848.19
2023-05-14T05:42:48.606Z,97846.98
2023-05-14T05:45:19.949Z,97845.59
2023-05-14T05:47:51.188Z,97842.34
2023-05-14T05:50:22.920Z,97840.36
2023-05-14T05:52:54.561Z,97842.05
2023-05-14T05:55:26.132Z,97841.50
2023-05-14T05:57:57.115Z,97844.14
2023-05-14T06:00:28.133Z,97847.54
2023-05-14T06:02:59.273Z,97849.89
2023-05-14T06:05:30.818Z,97854.34
2023-05-14T06:08:02.081Z,97852.53
2023-05-14T06:10:34.330Z,97853.02
2023-05-14T06:13:05.351Z,97851.23
2023-05-14T06:15:36.512Z,97852.27
2023-05-14T06:18:07.743Z,97853.15
2023-05-14T06:20:38.668Z,97854.89
2023-05-14T06:23:12.242Z,97856.10
2023-05-14T06:25:43.435Z,97860.34
2023-05-14T06:28:14.560Z,97858.67
2023-05-14T06:30:45.903Z,97856.52
2023-05-14T06:33:19.319Z,97859.23
2023-05-14T06:35:51.609Z,97857.10
2023-05-14T06:38:22.668Z,97857.86
2023-05-14T06:40:54.347Z,97856.67
2023-05-14T06:43:25.770Z,97858.31
2023-05-14T06:45:56.865Z,97860.14
2023-05-14T06:48:29.533Z,97865.08
2023-05-14T06:51:00.720Z,97862.82
2023-05-14T06:53:32.308Z,97857.88
2023-05-14T06:56:03.245Z,97859.21
2023-05-14T06:58:34.495Z,97855.96
2023-05-14T07:01:06.670Z,97854.41
2023-05-14T07:03:37.716Z,97855.80
2023-05-14T07:06:10.309Z,97857.54
2023-05-14T07:08:42.287Z,97852.48
2023-05-14T07:11:13.550Z,97853.27
2023-05-14T07:13:44.740Z,97853.79
2023-05-14T07:16:15.819Z,97850.35
2023-05-14T07:18:47.796Z,97848.20
2023-05-14T07:21:19.016Z,97847.30
2023-05-14T07:23:50.132Z,97847.25
2023-05-14T07:26:21.533Z,97842.54
2023-05-14T07:28:52.590Z,97846.86
2023-05-14T07:31:23.698Z,97841.93
2023-05-14T07:33:54.677Z,97842.34
2023-05-14T07:36:26.596Z,97841.23
2023-05-14T07:38:57.605Z,97840.77
2023-05-14T07:41:29.029Z,97840.41
2023-05-14T07:44:00.175Z,97836.14
2023-05-14T07:46:31.872Z,97834.39
2023-05-14T07:49:03.050Z,97829.88
2023-05-14T07:51:34.296Z,97827.45
2023-05-14T07:54:05.518Z,97824.55
2023-05-14T07:56:36.877Z,97826.45
2023-05-14T07:59:08.373Z,97821.63
2023-05-14T08:01:39.687Z,97821.91
2023-05-14T08:04:11.951Z,97811.59
2023-05-14T08:06:43.146Z,97809.08
2023-05-14T08:09:14.371Z,97804.34
2023-05-14T08:11:45.359Z,97805.36
2023-05-14T08:14:16.669Z,97799.84
2023-05-14T08:16:49.180Z,97793.83
2023-05-14T08:19:20.315Z,97789.95
2023-05-14T08:21:51.507Z,97788.97
2023-05-14T08:24:22.612Z,97790.91
2023-05-14T08:26:53.827Z,97788.25
2023-05-14T08:29:26.113Z,97789.10
2023-05-14T08:31:57.620Z,97781.62
2023-05-14T08:34:29.884Z,97781.89
2023-05-14T08:37:00.835Z,97780.89
2023-05-14T08:39:32.090Z,97777.86
2023-05-14T08:42:03.528Z,97776.54
2023-05-14T08:44:39.982Z,97774.79
2023-05-14T08:47:12.769Z,97768.40
2023-05-14T08:49:45.165Z,97768.37
2023-05-14T08:52:17.352Z,97769.75
2023-05-14T08:54:51.837Z,97765.34
2023-05-14T08:57:25.016Z,97765.44
2023-05-14T08:59:57.413Z,97759.77
2023-05-14T09:02:31.452Z,97752.79
2023-05-14T09:05:03.814Z,97750.09
2023-05-14T09:07:36.085Z,97752.39
2023-05-14T09:10:10.133Z,97749.08
2023-05-14T09:12:41.059Z,97743.49
2023-05-14T09:15:14.728Z,97740.23
2023-05-14T09:17:48.168Z,97741.14
2023-05-14T09:20:20.192Z,97738.14
2023-05-14T09:22:55.502Z,97736.02
2023-05-14T09:25:32.233Z,97733.22
2023-05-14T09:28:06.906Z,97729.87
2023-05-14T09:30:39.037Z,97729.27
2023-05-14T09:33:10.562Z,97725.54
2023-05-14T09:35:43.532Z,97720.06
2023-05-14T09:38:14.718Z,97716.61
2023-05-14T09:40:47.171Z,97711.79
2023-05-14T09:43:18.496Z,97704.01
2023-05-14T09:45:49.852Z,97694.89
2023-05-14T09:48:22.483Z,97692.21
2023-05-14T09:50:53.784Z,97698.05
2023-05-14T09:53:25.149Z,97691.80
2023-05-14T09:55:56.753Z,97687.42
2023-05-14T09:58:29.405Z,97683.69
2023-05-14T10:01:02.751Z,97683.74
2023-05-14T10:03:34.171Z,97682.30
2023-05-14T10:06:08.796Z,97678.08
2023-05-14T10:08:42.898Z,97675.54
2023-05-14T10:11:20.798Z,97681.86
2023-05-14T10:14:00.973Z,97683.42
2023-05-14T10:16:36.028Z,97678.72
2023-05-14T10:19:11.411Z,97678.00
2023-05-14T10:21:45.893Z,97673.66
2023-05-14T10:24:17.599Z,97662.95
2023-05-14T10:26:50.068Z,97658.63
2023-05-14T10:29:21.186Z,97658.95
2023-05-14T10:31:54.457Z,97658.74
2023-05-14T10:34:41.292Z,97650.31
2023-05-14T10:37:14.962Z,97650.53
2023-05-14T10:39:47.766Z,97653.73
2023-05-14T10:42:21.578Z,97649.06
2023-05-14T10:44:56.831Z,97644.18
2023-05-14T10:47:29.171Z,97647.70
2023-05-14T10:50:02.287Z,97644.59
2023-05-14T10:52:36.420Z,97639.16
2023-05-14T10:55:10.204Z,97635.27
2023-05-14T10:57:44.027Z,97630.61
2023-05-14T11:00:17.140Z,97624.48
2023-05-14T11:02:48.694Z,97623.03
2023-05-14T11:05:19.908Z,97624.14
2023-05-14T11:07:53.943Z,97621.02
2023-05-14T11:10:26.080Z,97616.77
2023-05-14T11:12:59.161Z,97620.35
2023-05-14T11:15:30.282Z,97620.59
2023-05-14T11:18:01.326Z,97618.52
2023-05-14T11:20:33.928Z,97618.58
2023-05-14T11:23:04.894Z,97615.29
2023-05-14T11:25:36.271Z,97613.81
2023-05-14T11:28:07.760Z,97608.63
2023-05-14T11:30:39.164Z,97609.58
2023-05-14T11:33:10.556Z,97612.73
2023-05-14T11:35:45.445Z,97617.27
2023-05-14T11:38:21.681Z,97613.81
2023-05-14T11:40:56.204Z,97613.38
2023-05-14T11:43:29.392Z,97615.05
2023-05-14T11:46:00.852Z,97614.59
2023-05-14T11:48:33.158Z,97609.79
2023-05-14T11:51:05.911Z,97610.13
2023-05-14T11:53:37.351Z,97609.91
2023-05-14T11:56:09.949Z,97609.45
2023-05-14T11:58:41.553Z,97606.20
2023-05-14T12:01:16.075Z,97609.74
2023-05-14T12:03:47.498Z,97611.32
2023-05-14T12:06:19.352Z,97611.73
2023-05-14T12:08:50.570Z,97612.64
2023-05-14T12:11:23.888Z,97607.21
2023-05-14T12:13:55.719Z,97603.05
2023-05-14T12:16:31.117Z,97601.20
2023-05-14T12:19:03.976Z,97602.41
2023-05-14T12:21:36.669Z,97601.61
2023-05-14T12:24:10.692Z,97603.94
2023-05-14T12:26:45.335Z,97605.09
2023-05-14T12:29:17.851Z,97604.16
2023-05-14T12:31:50.589Z,97607.27
2023-05-14T12:34:22.204Z,97605.65
2023-05-14T12:36:53.323Z,97607.02
2023-05-14T12:39:24.404Z,97605.53
2023-05-14T12:41:55.308Z,97601.86
2023-05-14T12:44:26.655Z,97601.55
2023-05-14T12:46:57.800Z,97599.73
2023-05-14T12:49:29.040Z,97598.73
2023-05-14T12:52:19.458Z,97600.45
2023-05-14T12:54:51.206Z,97598.98
2023-05-14T12:57:22.393Z,97598.61
2023-05-14T12:59:53.879Z,97596.23
2023-05-14T13:02:25.146Z,97597.31
2023-05-14T13:04:56.440Z,97599.56
2023-05-14T13:07:27.557Z,97602.52
2023-05-14T13:09:58.938Z,97602.36
2023-05-14T13:12:30.135Z,97599.20
2023-05-14T13:15:01.301Z,97598.14
2023-05-14T13:17:33.519Z,97602.61
2023-05-14T13:20:06.074Z,97602.00
2023-05-14T13:22:36.986Z,97599.66
2023-05-14T13:25:10.200Z,97595.09
2023-05-14T13:27:41.249Z,97592.59
2023-05-14T13:30:13.238Z,97592.02
2023-05-14T13:32:44.057Z,97585.12
2023-05-14T13:35:15.774Z,97580.91
2023-05-14T13:37:48.349Z,97578.86
2023-05-14T13:40:19.892Z,97583.02
2023-05-14T13:42:51.197Z,97581.23
2023-05-14T13:45:23.962Z,97576.56
2023-05-14T13:47:56.748Z,97569.63
2023-05-14T13:50:27.744Z,97567.35
2023-05-14T13:52:58.996Z,97566.66
2023-05-14T13:55:30.065Z,97562.44
2023-05-14T13:58:02.396Z,97557.98
2023-05-14T14:00:33.440Z,97555.23
2023-05-14T14:03:04.726Z,97551.36
2023-05-14T14:05:36.056Z,97553.39
2023-05-14T14:08:21.996Z,97555.23
2023-05-14T14:10:55.783Z,97557.59
2023-05-14T14:13:27.894Z,97557.70
2023-05-14T14:15:58.806Z,97555.01
2023-05-14T14:18:30.228Z,97555.36
2023-05-14T14:21:01.234Z,97555.98
2023-05-14T14:23:33.372Z,97558.58
2023-05-14T14:26:04.452Z,97557.52
2023-05-14T14:28:35.555Z,97558.13
2023-05-14T14:31:06.601Z,97559.95
2023-05-14T14:33:37.876Z,97556.80
2023-05-14T14:36:09.923Z,97557.08
2023-05-14T14:38:41.187Z,97553.44
2023-05-14T14:41:12.372Z,97556.20
2023-05-14T14:43:43.885Z,97552.17
2023-05-14T14:46:14.837Z,97549.79
2023-05-14T14:48:45.934Z,97553.08
2023-05-14T14:51:16.915Z,97551.59
2023-05-14T14:53:48.016Z,97555.88
2023-05-14T14:56:19.093Z,97557.15
2023-05-14T14:58:50.367Z,97552.71
2023-05-14T15:01:22.866Z,97553.21
2023-05-14T15:03:53.950Z,97557.21
2023-05-14T15:06:25.272Z,97556.34
2023-05-14T15:08:56.407Z,97561.63
2023-05-14T15:11:28.846Z,97559.52
2023-05-14T15:13:59.760Z,97559.90
2023-05-14T15:16:30.880Z,97560.91
2023-05-14T15:19:02.189Z,97565.59
2023-05-14T15:21:33.824Z,97568.92
2023-05-14T15:24:06.238Z,97564.91
2023-05-14T15:26:37.308Z,97568.64
2023-05-14T15:29:08.666Z,97573.99
2023-05-14T15:31:41.459Z,97572.02
2023-05-14T15:34:12.679Z,97572.44
2023-05-14T15:36:44.039Z,97573.26
2023-05-14T15:39:15.301Z,97571.45
2023-05-14T15:41:46.407Z,97572.73
2023-05-14T15:44:17.682Z,97575.10
2023-05-14T15:46:48.929Z,97570.91
2023-05-14T15:49:20.121Z,97568.52
2023-05-14T15:51:51.186Z,97568.27
2023-05-14T15:54:22.501Z,97568.22
2023-05-14T15:56:53.810Z,97565.73
2023-05-14T15:59:25.069Z,97562.30
2023-05-14T16:01:56.226Z,97562.90
2023-05-14T16:04:27.625Z,97561.14
2023-05-14T16:07:04.316Z,97561.89
2023-05-14T16:09:36.187Z,97563.38
2023-05-14T16:12:09.263Z,97560.34
2023-05-14T16:14:42.036Z,97561.98
2023-05-14T16:17:13.072Z,97560.08
2023-05-14T16:19:44.096Z,97558.41
2023-05-14T16:22:15.175Z,97556.63
2023-05-14T16:24:46.548Z,97553.27
2023-05-14T16:27:19.148Z,97553.95
2023-05-14T16:29:50.035Z,97554.67
2023-05-14T16:32:21.712Z,97551.54
2023-05-14T16:34:52.819Z,97554.55
2023-05-14T16:37:23.872Z,97552.25
2023-05-14T16:39:55.000Z,97551.87
2023-05-14T16:42:26.580Z,97556.52
2023-05-14T16:44:57.705Z,97555.36
2023-05-14T16:47:28.632Z,97558.61
2023-05-14T16:49:59.847Z,97556.96
2023-05-14T16:52:31.258Z,97553.88
2023-05-14T16:55:02.299Z,97555.43
2023-05-14T16:57:34.310Z,97554.84
2023-05-14T17:00:06.578Z,97553.30
2023-05-14T17:02:37.526Z,97549.60
2023-05-14T17:05:10.552Z,97550.45
2023-05-14T17:07:41.638Z,97546.50
2023-05-14T17:10:14.480Z,97544.18
2023-05-14T17:12:45.724Z,97540.92
2023-05-14T17:15:16.757Z,97541.49
2023-05-14T17:17:47.986Z,97540.75
2023-05-14T17:20:19.108Z,97536.76
2023-05-14T17:22:50.109Z,97536.89
2023-05-14T17:25:23.856Z,97536.80
2023-05-14T17:27:55.590Z,97534.97
2023-05-14T17:30:27.262Z,97535.80
2023-05-14T17:32:58.341Z,97538.42
2023-05-14T17:35:29.854Z,97536.33
2023-05-14T17:38:00.883Z,97535.76
2023-05-14T17:40:36.310Z,97532.64
2023-05-14T17:43:08.604Z,97527.96
2023-05-14T17:45:53.096Z,97527.36
2023-05-14T17:48:25.008Z,97527.62
2023-05-14T17:50:56.270Z,97525.65
2023-05-14T17:53:27.514Z,97523.25
2023-05-14T17:55:58.827Z,97516.34
2023-05-14T17:58:29.899Z,97514.17
2023-05-14T18:01:00.825Z,97511.23
2023-05-14T18:03:32.001Z,97511.04
2023-05-14T18:06:03.337Z,97509.38
2023-05-14T18:08:34.472Z,97505.96
2023-05-14T18:11:05.512Z,97504.02
2023-05-14T18:13:36.541Z,97503.50
2023-05-14T18:16:08.765Z,97498.83
2023-05-14T18:18:39.811Z,97500.17
2023-05-14T18:21:10.826Z,97500.46
2023-05-14T18:23:41.854Z,97497.46
2023-05-14T18:26:12.947Z,97493.17
2023-05-14T18:28:44.001Z,97493.57
2023-05-14T18:31:15.352Z,97484.08
2023-05-14T18:33:46.466Z,97482.99
2023-05-14T18:36:18.717Z,97484.36
2023-05-14T18:38:49.801Z,97480.64
2023-05-14T18:41:21.495Z,97480.13
2023-05-14T18:43:52.604Z,97479.55
2023-05-14T18:46:23.787Z,97478.77
2023-05-14T18:48:54.868Z,97479.71
2023-05-14T18:51:26.101Z,97477.48
2023-05-14T18:53:57.259Z,97473.09
2023-05-14T18:56:28.666Z,97467.35
2023-05-14T18:58:59.844Z,97463.70
2023-05-14T19:01:31.489Z,97459.23
2023-05-14T19:04:05.213Z,97460.21
2023-05-14T19:06:36.614Z,97456.91
2023-05-14T19:09:07.699Z,97459.11
2023-05-14T19:11:39.016Z,97455.06
2023-05-14T19:14:11.425Z,97452.57
2023-05-14T19:16:42.771Z,97453.13
2023-05-14T19:19:14.542Z,97455.48
2023-05-14T19:21:45.781Z,97453.43
2023-05-14T19:24:17.281Z,97453.83
2023-05-14T19:26:49.359Z,97452.89
2023-05-14T19:29:20.608Z,97451.64
2023-05-14T19:31:51.876Z,97452.95
2023-05-14T19:34:22.920Z,97449.34
2023-05-14T19:36:54.566Z,97448.52
2023-05-14T19:39:25.800Z,97443.17
2023-05-14T19:41:56.886Z,97443.96
2023-05-14T19:44:27.885Z,97438.89
2023-05-14T19:46:59.703Z,97434.28
2023-05-14T19:49:30.832Z,97432.95
2023-05-14T19:52:00.142Z,97426.99
2023-05-14T19:54:34.767Z,97427.16
2023-05-14T19:57:06.546Z,97417.98
2023-05-14T19:59:38.452Z,97413.22
2023-05-14T20:02:12.453Z,97414.23
2023-05-14T20:04:44.544Z,97412.63
2023-05-14T20:07:16.482Z,97411.94
2023-05-14T20:09:47.847Z,97411.54
2023-05-14T20:12:18.875Z,97403.76
2023-05-14T20:14:50.869Z,97400.05
2023-05-14T20:17:21.906Z,97395.50
2023-05-14T20:19:53.699Z,97387.35
2023-05-14T20:22:24.682Z,97389.62
2023-05-14T20:24:55.893Z,97388.02
2023-05-14T20:27:26.909Z,97384.80
2023-05-14T20:29:58.514Z,97377.19
2023-05-14T20:32:29.659Z,97371.01
2023-05-14T20:35:02.233Z,97369.09
2023-05-14T20:37:34.188Z,97361.15
2023-05-14T20:40:06.237Z,97356.24
2023-05-14T20:42:37.536Z,97356.27
2023-05-14T20:45:10.343Z,97353.51
2023-05-14T20:47:41.388Z,97353.97
2023-05-14T20:50:13.928Z,97351.45
2023-05-14T20:52:45.392Z,97347.79
2023-05-14T20:55:16.444Z,97340.66
2023-05-14T20:57:49.668Z,97336.45
2023-05-14T21:00:23.528Z,97333.36
2023-05-14T21:02:54.737Z,97328.66
2023-05-14T21:05:26.250Z,97326.42
2023-05-14T21:07:57.574Z,97320.88
2023-05-14T21:10:28.676Z,97313.91
2023-05-14T21:12:57.907Z,97317.08
2023-05-14T21:15:30.636Z,97312.90
2023-05-14T21:18:02.973Z,97309.98
2023-05-14T21:20:33.937Z,97307.15
2023-05-14T21:23:04.879Z,97301.27
2023-05-14T21:25:36.817Z,97296.36
2023-05-14T21:28:07.793Z,97294.45
2023-05-14T21:30:38.841Z,97292.11
2023-05-14T21:33:10.057Z,97288.29
2023-05-14T21:35:41.358Z,97280.98
2023-05-14T21:38:12.930Z,97281.96
2023-05-14T21:40:43.954Z,97278.90
2023-05-14T21:43:14.937Z,97275.59
2023-05-14T21:45:48.345Z,97274.48
2023-05-14T21:48:19.611Z,97269.37
2023-05-14T21:50:50.590Z,97260.85
2023-05-14T21:53:21.660Z,97259.13
2023-05-14T21:55:52.880Z,97252.40
2023-05-14T21:58:22.493Z,97249.91
2023-05-14T22:00:51.833Z,97246.54
2023-05-14T22:03:22.914Z,97238.69
2023-05-14T22:05:54.377Z,97234.41
2023-05-14T22:08:25.402Z,97230.06
2023-05-14T22:10:58.204Z,97229.04
2023-05-14T22:13:29.627Z,97226.35
2023-05-14T22:16:09.227Z,97220.48
2023-05-14T22:18:43.776Z,97215.45
2023-05-14T22:21:14.836Z,97215.67
2023-05-14T22:23:44.451Z,97212.93
2023-05-14T22:26:16.040Z,97207.33
2023-05-14T22:28:48.703Z,97205.24
2023-05-14T22:31:19.807Z,97205.91
2023-05-14T22:33:51.202Z,97199.14
2023-05-14T22:36:22.186Z,97197.44
2023-05-14T22:38:53.180Z,97196.71
2023-05-14T22:41:24.138Z,97195.41
2023-05-14T22:43:53.494Z,97192.17
2023-05-14T22:46:24.570Z,97189.03
2023-05-14T22:48:55.635Z,97187.73
2023-05-14T22:51:26.739Z,97182.06
2023-05-14T22:53:57.926Z,97177.73
2023-05-14T22:56:28.940Z,97170.25
2023-05-14T22:59:00.364Z,97165.02
2023-05-14T23:01:32.281Z,97168.27
2023-05-14T23:04:03.718Z,97162.48
2023-05-14T23:06:34.685Z,97157.88
2023-05-14T23:09:05.860Z,97156.61
2023-05-14T23:11:35.175Z,97151.80
2023-05-14T23:14:06.125Z,97154.90
2023-05-14T23:16:35.537Z,97154.39
2023-05-14T23:19:05.400Z,97147.61
2023-05-14T23:21:36.638Z,97145.89
2023-05-14T23:24:08.398Z,97140.65
2023-05-14T23:26:39.574Z,97136.65
2023-05-14T23:29:10.834Z,97127.90
2023-05-14T23:31:43.642Z,97125.50
2023-05-14T23:34:14.756Z,97123.39
2023-05-14T23:36:45.872Z,97120.43
2023-05-14T23:39:17.373Z,97115.70
2023-05-14T23:41:48.789Z,97114.09
2023-05-14T23:44:19.806Z,97110.61
2023-05-14T23:46:50.934Z,97105.93
2023-05-14T23:49:21.945Z,97104.50
2023-05-14T23:51:53.002Z,97101.59
2023-05-14T23:54:24.054Z,97093.71
2023-05-14T23:56:55.153Z,97089.16
2023-05-14T23:59:26.572Z,97086.39
